createdAt,value
2022-09-18T00:01:33.107Z,52.33
2022-09-18T00:04:02.900Z,52.68
2022-09-18T00:06:36.106Z,52.54
2022-09-18T00:09:06.651Z,52.65
2022-09-18T00:11:37.838Z,52.82
2022-09-18T00:14:06.656Z,52.79
2022-09-18T00:16:34.576Z,52.91
2022-09-18T00:19:02.488Z,52.92
2022-09-18T00:21:32.786Z,53.25
2022-09-18T00:24:03.984Z,53.49
2022-09-18T00:26:31.466Z,53.54
2022-09-18T00:28:59.320Z,53.70
2022-09-18T00:31:29.888Z,53.50
2022-09-18T00:33:58.177Z,53.71
2022-09-18T00:36:25.723Z,53.47
2022-09-18T00:38:54.530Z,53.84
2022-09-18T00:41:24.922Z,53.79
2022-09-18T00:43:53.914Z,54.19
2022-09-18T00:46:29.520Z,53.44
2022-09-18T00:49:06.355Z,54.07
2022-09-18T00:51:36.924Z,53.95
2022-09-18T00:54:21.566Z,54.04
2022-09-18T00:56:54.094Z,54.07
2022-09-18T00:59:26.813Z,53.99
2022-09-18T01:01:56.732Z,54.03
2022-09-18T01:04:25.761Z,53.80
2022-09-18T01:07:05.554Z,53.66
2022-09-18T01:09:45.672Z,53.86
2022-09-18T01:12:26.582Z,53.84
2022-09-18T01:15:05.613Z,53.94
2022-09-18T01:17:45.924Z,53.60
2022-09-18T01:20:35.620Z,53.46
2022-09-18T01:23:42.316Z,53.61
2022-09-18T01:26:37.482Z,53.42
2022-09-18T01:29:13.999Z,53.80
2022-09-18T01:31:51.344Z,53.64
2022-09-18T01:34:31.170Z,53.52
2022-09-18T01:37:06.361Z,53.53
2022-09-18T01:39:42.899Z,53.34
2022-09-18T01:42:13.776Z,53.50
2022-09-18T01:44:46.570Z,53.36
2022-09-18T01:47:18.436Z,53.53
2022-09-18T01:49:48.615Z,53.62
2022-09-18T01:52:23.738Z,53.65
2022-09-18T01:54:57.166Z,53.57
2022-09-18T01:57:33.230Z,53.90
2022-09-18T02:00:07.478Z,53.58
2022-09-18T02:02:42.703Z,53.77
2022-09-18T02:05:18.587Z,53.69
2022-09-18T02:07:58.214Z,53.94
2022-09-18T02:10:28.996Z,53.68
2022-09-18T02:12:57.806Z,53.78
2022-09-18T02:15:32.334Z,54.06
2022-09-18T02:18:06.528Z,53.67
2022-09-18T02:20:38.010Z,53.40
2022-09-18T02:23:09.034Z,53.66
2022-09-18T02:25:43.968Z,53.81
2022-09-18T02:28:16.499Z,53.51
2022-09-18T02:30:45.384Z,53.44
2022-09-18T02:33:29.004Z,53.55
2022-09-18T02:36:40.941Z,53.24
2022-09-18T02:39:41.903Z,53.68
2022-09-18T02:42:27.632Z,53.61
2022-09-18T02:45:08.445Z,53.57
2022-09-18T02:47:57.714Z,53.72
2022-09-18T02:50:34.956Z,53.87
2022-09-18T02:53:10.692Z,53.92
2022-09-18T02:55:46.201Z,54.15
2022-09-18T02:58:21.234Z,54.24
2022-09-18T03:00:50.575Z,54.00
2022-09-18T03:03:19.396Z,54.27
2022-09-18T03:05:46.865Z,54.60
2022-09-18T03:08:14.107Z,54.41
2022-09-18T03:10:41.804Z,54.74
2022-09-18T03:13:09.253Z,54.45
2022-09-18T03:15:36.462Z,54.37
2022-09-18T03:18:03.788Z,54.69
2022-09-18T03:20:32.542Z,54.68
2022-09-18T03:22:59.802Z,54.89
2022-09-18T03:25:27.147Z,54.93
2022-09-18T03:27:55.437Z,55.27
2022-09-18T03:30:23.136Z,54.93
2022-09-18T03:32:50.479Z,55.40
2022-09-18T03:35:17.733Z,55.17
2022-09-18T03:37:46.826Z,55.40
2022-09-18T03:40:14.462Z,55.36
2022-09-18T03:42:43.348Z,55.59
2022-09-18T03:45:12.201Z,55.58
2022-09-18T03:47:39.664Z,55.15
2022-09-18T03:50:08.098Z,55.34
2022-09-18T03:52:35.576Z,55.55
2022-09-18T03:55:04.723Z,55.42
2022-09-18T03:57:32.072Z,55.39
2022-09-18T03:59:59.311Z,55.72
2022-09-18T04:02:26.685Z,55.68
2022-09-18T04:04:54.022Z,55.33
2022-09-18T04:07:21.355Z,55.72
2022-09-18T04:09:48.568Z,55.54
2022-09-18T04:12:17.192Z,55.48
2022-09-18T04:14:44.416Z,55.44
2022-09-18T04:17:11.639Z,55.25
2022-09-18T04:19:38.919Z,55.05
2022-09-18T04:22:06.218Z,55.35
2022-09-18T04:24:35.331Z,55.46
2022-09-18T04:27:02.610Z,55.18
2022-09-18T04:29:31.230Z,55.20
2022-09-18T04:31:58.500Z,54.80
2022-09-18T04:34:25.730Z,54.82
2022-09-18T04:36:53.102Z,55.17
2022-09-18T04:39:20.385Z,54.94
2022-09-18T04:41:47.633Z,54.97
2022-09-18T04:44:14.839Z,55.34
2022-09-18T04:46:43.633Z,55.17
2022-09-18T04:49:11.463Z,55.49
2022-09-18T04:51:38.785Z,55.18
2022-09-18T04:54:06.115Z,55.39
2022-09-18T04:56:33.402Z,55.48
2022-09-18T04:59:04.042Z,55.04
2022-09-18T05:01:31.326Z,54.85
2022-09-18T05:04:00.121Z,55.06
2022-09-18T05:06:27.386Z,55.07
2022-09-18T05:08:54.626Z,55.30
2022-09-18T05:11:21.838Z,55.12
2022-09-18T05:13:49.713Z,55.38
2022-09-18T05:16:17.072Z,55.63
2022-09-18T05:18:44.488Z,55.77
2022-09-18T05:21:13.137Z,55.81
2022-09-18T05:23:40.401Z,55.84
2022-09-18T05:26:07.640Z,55.88
2022-09-18T05:28:34.948Z,56.00
2022-09-18T05:31:02.438Z,55.95
2022-09-18T05:33:30.596Z,55.95
2022-09-18T05:35:58.633Z,56.18
2022-09-18T05:38:27.788Z,56.60
2022-09-18T05:40:59.782Z,56.32
2022-09-18T05:43:27.036Z,56.52
2022-09-18T05:45:54.309Z,56.26
2022-09-18T05:48:22.170Z,56.45
2022-09-18T05:50:51.886Z,56.43
2022-09-18T05:53:21.374Z,56.65
2022-09-18T05:55:50.111Z,56.75
2022-09-18T05:58:19.518Z,56.97
2022-09-18T06:00:47.600Z,57.01
2022-09-18T06:03:16.852Z,57.14
2022-09-18T06:05:51.928Z,57.04
2022-09-18T06:08:19.997Z,57.04
2022-09-18T06:10:47.406Z,57.23
2022-09-18T06:13:18.432Z,57.19
2022-09-18T06:15:48.392Z,56.83
2022-09-18T06:18:16.488Z,56.88
2022-09-18T06:20:51.053Z,56.84
2022-09-18T06:23:18.312Z,57.17
2022-09-18T06:25:45.513Z,56.89
2022-09-18T06:28:12.733Z,57.22
2022-09-18T06:30:41.312Z,56.86
2022-09-18T06:33:10.648Z,56.78
2022-09-18T06:35:38.632Z,56.68
2022-09-18T06:38:07.160Z,56.68
2022-09-18T06:40:35.702Z,56.83
2022-09-18T06:43:03.967Z,56.83
2022-09-18T06:45:32.430Z,56.26
2022-09-18T06:48:04.675Z,56.10
2022-09-18T06:50:32.160Z,56.45
2022-09-18T06:53:02.612Z,56.35
2022-09-18T06:55:31.754Z,56.17
2022-09-18T06:58:00.522Z,55.89
2022-09-18T07:00:28.591Z,55.36
2022-09-18T07:02:58.039Z,55.10
2022-09-18T07:05:30.147Z,55.14
2022-09-18T07:07:58.019Z,54.38
2022-09-18T07:10:26.335Z,53.42
2022-09-18T07:12:56.839Z,52.12
2022-09-18T07:15:25.314Z,51.54
2022-09-18T07:17:55.687Z,51.33
2022-09-18T07:20:23.052Z,51.45
2022-09-18T07:22:55.370Z,51.34
2022-09-18T07:25:23.390Z,51.17
2022-09-18T07:27:51.043Z,51.47
2022-09-18T07:30:18.835Z,51.74
2022-09-18T07:32:46.870Z,51.96
2022-09-18T07:35:14.381Z,52.32
2022-09-18T07:37:44.189Z,52.21
2022-09-18T07:40:12.998Z,52.29
2022-09-18T07:42:40.563Z,52.25
2022-09-18T07:45:08.546Z,52.01
2022-09-18T07:47:36.188Z,52.16
2022-09-18T07:50:03.880Z,51.39
2022-09-18T07:52:31.357Z,51.01
2022-09-18T07:54:59.131Z,50.37
2022-09-18T07:57:27.827Z,50.10
2022-09-18T07:59:55.053Z,50.12
2022-09-18T08:02:22.348Z,49.76
2022-09-18T08:04:49.601Z,49.83
2022-09-18T08:07:16.839Z,47.31
2022-09-18T08:09:44.096Z,45.18
2022-09-18T08:12:11.331Z,44.14
2022-09-18T08:14:41.043Z,44.17
2022-09-18T08:17:08.269Z,43.83
2022-09-18T08:19:35.505Z,44.11
2022-09-18T08:22:04.771Z,44.69
2022-09-18T08:24:32.087Z,45.68
2022-09-18T08:27:03.508Z,45.89
2022-09-18T08:29:30.925Z,46.17
2022-09-18T08:31:59.937Z,46.93
2022-09-18T08:34:27.258Z,47.46
2022-09-18T08:36:55.687Z,48.25
2022-09-18T08:39:23.173Z,48.46
2022-09-18T08:42:10.404Z,46.92
2022-09-18T08:44:48.309Z,45.92
2022-09-18T08:47:23.509Z,45.02
2022-09-18T08:49:57.762Z,42.60
2022-09-18T08:52:28.996Z,40.22
2022-09-18T08:55:04.519Z,39.42
2022-09-18T08:57:39.454Z,36.37
2022-09-18T09:00:16.939Z,35.14
2022-09-18T09:02:49.252Z,33.81
2022-09-18T09:05:20.411Z,32.89
2022-09-18T09:08:40.797Z,33.48
2022-09-18T09:11:17.843Z,35.47
2022-09-18T09:14:45.945Z,35.77
2022-09-18T09:17:23.525Z,34.67
2022-09-18T09:20:03.652Z,33.79
2022-09-18T09:22:42.884Z,34.94
2022-09-18T09:25:22.211Z,33.87
2022-09-18T09:27:58.933Z,33.28
2022-09-18T09:30:30.970Z,32.54
2022-09-18T09:33:11.923Z,31.86
2022-09-18T09:35:46.282Z,30.40
2022-09-18T09:38:41.301Z,29.77
2022-09-18T09:41:23.113Z,30.75
2022-09-18T09:44:03.186Z,31.50
2022-09-18T09:46:55.842Z,31.09
2022-09-18T09:49:27.777Z,32.29
2022-09-18T09:52:09.598Z,32.62
2022-09-18T09:54:37.353Z,32.01
2022-09-18T09:57:21.719Z,32.62
2022-09-18T10:00:07.825Z,33.95
2022-09-18T10:02:56.287Z,35.17
2022-09-18T10:05:32.221Z,36.83
2022-09-18T10:08:09.276Z,38.03
2022-09-18T10:10:45.291Z,39.66
2022-09-18T10:13:21.073Z,40.09
2022-09-18T10:15:53.687Z,41.15
2022-09-18T10:18:26.958Z,42.35
2022-09-18T10:21:02.145Z,43.34
2022-09-18T10:23:40.706Z,44.11
2022-09-18T10:26:17.686Z,44.23
2022-09-18T10:28:44.973Z,44.16
2022-09-18T10:31:14.203Z,44.26
2022-09-18T10:33:44.124Z,44.82
2022-09-18T10:36:28.582Z,45.49
2022-09-18T10:39:00.258Z,45.86
2022-09-18T10:41:35.920Z,45.85
2022-09-18T10:44:21.325Z,46.48
2022-09-18T10:46:56.504Z,46.91
2022-09-18T10:49:29.119Z,47.48
2022-09-18T10:52:28.437Z,48.05
2022-09-18T10:55:14.821Z,48.44
2022-09-18T10:57:45.834Z,49.02
2022-09-18T11:00:42.053Z,49.70
2022-09-18T11:03:40.189Z,50.32
2022-09-18T11:06:16.723Z,50.41
2022-09-18T11:08:48.893Z,50.72
2022-09-18T11:11:27.868Z,50.51
2022-09-18T11:14:01.088Z,49.83
2022-09-18T11:16:33.442Z,49.82
2022-09-18T11:19:07.372Z,49.53
2022-09-18T11:21:45.315Z,49.05
2022-09-18T11:24:23.055Z,48.98
2022-09-18T11:26:54.723Z,48.19
2022-09-18T11:29:30.748Z,48.47
2022-09-18T11:32:05.029Z,47.96
2022-09-18T11:34:37.327Z,47.37
2022-09-18T11:37:08.991Z,47.51
2022-09-18T11:39:42.000Z,46.11
2022-09-18T11:42:16.548Z,45.99
2022-09-18T11:44:45.373Z,45.45
2022-09-18T11:47:31.673Z,45.34
2022-09-18T11:50:16.169Z,45.23
2022-09-18T11:52:47.939Z,44.80
2022-09-18T11:55:30.966Z,45.02
2022-09-18T11:58:05.877Z,43.50
2022-09-18T12:00:42.513Z,43.70
2022-09-18T12:03:21.830Z,43.25
2022-09-18T12:05:58.405Z,41.59
2022-09-18T12:08:47.738Z,41.64
2022-09-18T12:11:25.935Z,40.77
2022-09-18T12:14:10.260Z,40.25
2022-09-18T12:16:52.303Z,41.31
2022-09-18T12:19:25.505Z,41.37
2022-09-18T12:22:01.718Z,42.34
2022-09-18T12:24:29.038Z,42.28
2022-09-18T12:27:14.172Z,41.41
2022-09-18T12:30:07.051Z,41.33
2022-09-18T12:33:13.390Z,40.29
2022-09-18T12:36:04.612Z,40.16
2022-09-18T12:38:55.336Z,40.77
2022-09-18T12:41:46.619Z,38.28
2022-09-18T12:44:54.862Z,39.80
2022-09-18T12:47:40.261Z,40.34
2022-09-18T12:50:37.683Z,41.23
2022-09-18T12:53:27.447Z,41.83
2022-09-18T12:56:16.396Z,41.98
2022-09-18T12:59:32.574Z,42.41
2022-09-18T13:02:22.175Z,42.64
2022-09-18T13:04:57.495Z,42.65
2022-09-18T13:07:32.659Z,42.93
2022-09-18T13:10:10.024Z,43.20
2022-09-18T13:12:44.726Z,42.64
2022-09-18T13:15:20.092Z,42.91
2022-09-18T13:17:55.222Z,43.01
2022-09-18T13:20:29.237Z,41.94
2022-09-18T13:22:57.542Z,42.18
2022-09-18T13:25:32.946Z,42.26
2022-09-18T13:28:05.019Z,41.98
2022-09-18T13:30:33.592Z,41.47
2022-09-18T13:33:02.776Z,40.82
2022-09-18T13:35:33.847Z,40.25
2022-09-18T13:38:13.477Z,40.80
2022-09-18T13:40:45.589Z,40.30
2022-09-18T13:43:40.735Z,40.23
2022-09-18T13:46:27.988Z,40.39
2022-09-18T13:48:58.417Z,38.51
2022-09-18T13:51:32.064Z,39.13
2022-09-18T13:54:19.755Z,40.45
2022-09-18T13:57:20.431Z,39.80
2022-09-18T13:59:55.605Z,40.89
2022-09-18T14:02:31.502Z,40.86
2022-09-18T14:05:29.951Z,41.49
2022-09-18T14:08:34.753Z,41.11
2022-09-18T14:11:16.125Z,40.18
2022-09-18T14:13:51.643Z,40.58
2022-09-18T14:16:41.363Z,40.64
2022-09-18T14:19:31.896Z,41.13
2022-09-18T14:22:01.454Z,41.67
2022-09-18T14:25:00.027Z,41.51
2022-09-18T14:27:41.964Z,41.96
2022-09-18T14:30:18.195Z,41.79
2022-09-18T14:33:03.727Z,41.88
2022-09-18T14:35:42.024Z,41.36
2022-09-18T14:38:28.295Z,41.71
2022-09-18T14:41:09.011Z,42.22
2022-09-18T14:43:39.885Z,41.77
2022-09-18T14:46:18.340Z,41.10
2022-09-18T14:48:45.812Z,39.90
2022-09-18T14:51:21.170Z,39.12
2022-09-18T14:53:53.986Z,40.13
2022-09-18T14:56:29.391Z,39.97
2022-09-18T14:59:03.152Z,39.79
2022-09-18T15:01:33.681Z,40.31
2022-09-18T15:04:04.835Z,39.15
2022-09-18T15:06:37.704Z,39.61
2022-09-18T15:09:10.964Z,40.11
2022-09-18T15:12:01.358Z,40.57
2022-09-18T15:14:39.433Z,39.71
2022-09-18T15:17:19.741Z,40.26
2022-09-18T15:19:59.742Z,42.10
2022-09-18T15:22:29.626Z,41.71
2022-09-18T15:25:01.758Z,41.43
2022-09-18T15:27:31.731Z,41.65
2022-09-18T15:30:04.945Z,41.59
2022-09-18T15:32:41.732Z,41.74
2022-09-18T15:35:19.770Z,41.86
2022-09-18T15:37:52.862Z,43.24
2022-09-18T15:40:29.077Z,44.75
2022-09-18T15:42:59.748Z,46.19
2022-09-18T15:45:29.841Z,47.08
2022-09-18T15:48:00.644Z,47.65
2022-09-18T15:50:42.006Z,48.02
2022-09-18T15:53:26.049Z,48.26
2022-09-18T15:56:07.465Z,48.37
2022-09-18T15:58:44.677Z,48.48
2022-09-18T16:01:22.962Z,48.76
2022-09-18T16:04:04.512Z,48.79
2022-09-18T16:06:43.556Z,48.74
2022-09-18T16:09:25.604Z,48.59
2022-09-18T16:11:54.355Z,48.76
2022-09-18T16:14:43.945Z,48.74
2022-09-18T16:17:37.002Z,48.76
2022-09-18T16:20:44.101Z,48.70
2022-09-18T16:23:26.987Z,48.77
2022-09-18T16:26:10.454Z,48.59
2022-09-18T16:28:43.157Z,48.71
2022-09-18T16:31:12.182Z,48.65
2022-09-18T16:33:51.473Z,48.84
2022-09-18T16:36:27.954Z,48.82
2022-09-18T16:38:56.692Z,48.88
2022-09-18T16:41:24.379Z,49.23
2022-09-18T16:43:53.974Z,49.15
2022-09-18T16:46:27.853Z,49.31
2022-09-18T16:48:56.119Z,49.03
2022-09-18T16:51:23.392Z,48.67
2022-09-18T16:53:50.693Z,48.39
2022-09-18T16:56:24.332Z,48.05
2022-09-18T16:58:56.193Z,48.24
2022-09-18T17:01:23.984Z,48.17
2022-09-18T17:03:51.855Z,48.10
2022-09-18T17:06:19.373Z,48.10
2022-09-18T17:08:47.024Z,48.22
2022-09-18T17:11:14.395Z,48.21
2022-09-18T17:13:41.601Z,48.59
2022-09-18T17:16:10.463Z,48.73
2022-09-18T17:18:37.860Z,48.97
2022-09-18T17:21:06.017Z,49.59
2022-09-18T17:23:33.887Z,49.92
2022-09-18T17:26:08.880Z,50.15
2022-09-18T17:28:36.773Z,50.27
2022-09-18T17:31:10.437Z,50.65
2022-09-18T17:33:38.924Z,50.74
2022-09-18T17:36:09.279Z,50.81
2022-09-18T17:38:37.930Z,51.16
2022-09-18T17:41:08.068Z,51.41
2022-09-18T17:43:35.712Z,51.25
2022-09-18T17:46:05.865Z,51.42
2022-09-18T17:48:35.129Z,51.21
2022-09-18T17:51:05.295Z,51.26
2022-09-18T17:53:33.853Z,51.32
2022-09-18T17:56:02.317Z,51.40
2022-09-18T17:58:31.194Z,51.30
2022-09-18T18:00:59.982Z,51.66
2022-09-18T18:03:28.175Z,51.57
2022-09-18T18:05:58.712Z,51.48
2022-09-18T18:08:27.321Z,51.76
2022-09-18T18:10:56.471Z,51.70
2022-09-18T18:13:24.161Z,51.71
2022-09-18T18:15:51.800Z,51.87
2022-09-18T18:18:19.788Z,51.76
2022-09-18T18:20:50.355Z,51.98
2022-09-18T18:23:19.527Z,52.05
2022-09-18T18:25:47.388Z,51.91
2022-09-18T18:28:14.987Z,51.76
2022-09-18T18:30:46.254Z,52.06
2022-09-18T18:33:14.739Z,52.26
2022-09-18T18:35:42.005Z,52.56
2022-09-18T18:38:09.455Z,53.84
2022-09-18T18:40:40.328Z,54.13
2022-09-18T18:43:14.364Z,54.30
2022-09-18T18:45:52.530Z,54.81
2022-09-18T18:48:19.824Z,54.74
2022-09-18T18:50:47.186Z,55.09
2022-09-18T18:53:15.591Z,55.36
2022-09-18T18:55:48.248Z,55.50
2022-09-18T18:58:15.800Z,55.77
2022-09-18T19:00:43.894Z,55.92
2022-09-18T19:03:11.257Z,56.19
2022-09-18T19:05:40.769Z,56.42
2022-09-18T19:08:09.266Z,56.31
2022-09-18T19:10:36.637Z,56.29
2022-09-18T19:13:06.259Z,55.83
2022-09-18T19:15:38.523Z,55.74
2022-09-18T19:18:05.947Z,55.53
2022-09-18T19:20:34.529Z,55.84
2022-09-18T19:23:01.752Z,55.56
2022-09-18T19:25:30.237Z,55.75
2022-09-18T19:27:57.957Z,55.60
2022-09-18T19:30:27.046Z,55.56
2022-09-18T19:32:55.564Z,55.54
2022-09-18T19:35:23.023Z,55.58
2022-09-18T19:37:50.292Z,55.62
2022-09-18T19:40:18.329Z,55.66
2022-09-18T19:42:55.511Z,55.51
2022-09-18T19:45:28.801Z,55.83
2022-09-18T19:47:56.452Z,55.74
2022-09-18T19:50:28.927Z,56.04
2022-09-18T19:52:56.766Z,56.00
2022-09-18T19:55:24.564Z,56.14
2022-09-18T19:57:56.287Z,56.17
2022-09-18T20:00:24.699Z,56.37
2022-09-18T20:02:57.429Z,56.42
2022-09-18T20:05:24.795Z,56.35
2022-09-18T20:07:52.456Z,56.40
2022-09-18T20:10:20.042Z,56.58
2022-09-18T20:12:47.731Z,56.77
2022-09-18T20:15:14.938Z,57.11
2022-09-18T20:17:42.197Z,57.05
2022-09-18T20:20:15.657Z,57.42
2022-09-18T20:22:44.268Z,57.36
2022-09-18T20:25:12.060Z,57.53
2022-09-18T20:27:41.845Z,57.61
2022-09-18T20:30:12.577Z,57.89
2022-09-18T20:32:40.944Z,57.73
2022-09-18T20:35:10.362Z,57.38
2022-09-18T20:37:37.805Z,57.62
2022-09-18T20:40:11.211Z,57.60
2022-09-18T20:42:38.775Z,57.85
2022-09-18T20:45:07.365Z,57.50
2022-09-18T20:47:36.926Z,57.73
2022-09-18T20:50:06.680Z,57.80
2022-09-18T20:52:37.721Z,57.55
2022-09-18T20:55:08.760Z,57.75
2022-09-18T20:57:37.099Z,57.39
2022-09-18T21:00:07.429Z,57.36
2022-09-18T21:02:35.420Z,57.41
2022-09-18T21:05:08.498Z,57.43
2022-09-18T21:07:37.374Z,57.83
2022-09-18T21:10:07.004Z,57.88
2022-09-18T21:12:40.320Z,57.87
2022-09-18T21:15:15.500Z,57.74
2022-09-18T21:17:43.550Z,57.42
2022-09-18T21:20:12.129Z,57.53
2022-09-18T21:23:03.215Z,57.97
2022-09-18T21:25:31.042Z,57.94
2022-09-18T21:27:58.775Z,57.95
2022-09-18T21:30:26.706Z,57.79
2022-09-18T21:32:55.730Z,57.94
2022-09-18T21:35:23.211Z,57.97
2022-09-18T21:37:55.129Z,58.04
2022-09-18T21:40:22.785Z,57.72
2022-09-18T21:42:50.636Z,57.58
2022-09-18T21:45:20.249Z,57.80
2022-09-18T21:47:49.560Z,57.80
2022-09-18T21:50:16.936Z,57.95
2022-09-18T21:52:44.286Z,57.75
2022-09-18T21:55:13.031Z,57.71
2022-09-18T21:57:40.417Z,57.63
2022-09-18T22:00:09.477Z,57.44
2022-09-18T22:02:36.806Z,57.26
2022-09-18T22:05:12.179Z,57.46
2022-09-18T22:07:40.766Z,57.38
2022-09-18T22:10:09.365Z,57.36
2022-09-18T22:12:38.953Z,57.31
2022-09-18T22:15:07.809Z,57.07
2022-09-18T22:17:35.087Z,57.19
2022-09-18T22:20:02.920Z,57.15
2022-09-18T22:22:30.382Z,57.46
2022-09-18T22:24:57.773Z,57.15
2022-09-18T22:27:25.044Z,57.93
2022-09-18T22:29:53.705Z,57.88
2022-09-18T22:32:21.097Z,57.72
2022-09-18T22:34:48.827Z,57.96
2022-09-18T22:37:16.087Z,58.12
2022-09-18T22:39:43.601Z,57.98
2022-09-18T22:42:10.841Z,57.78
2022-09-18T22:44:38.205Z,57.41
2022-09-18T22:47:06.977Z,57.32
2022-09-18T22:49:34.463Z,57.52
2022-09-18T22:52:02.243Z,57.52
2022-09-18T22:54:29.598Z,57.31
2022-09-18T22:56:56.928Z,57.41
2022-09-18T22:59:27.319Z,57.44
2022-09-18T23:01:58.221Z,57.37
2022-09-18T23:04:29.868Z,57.45
2022-09-18T23:06:59.259Z,57.53
2022-09-18T23:09:27.995Z,57.50
2022-09-18T23:11:56.745Z,57.66
2022-09-18T23:14:27.635Z,57.83
2022-09-18T23:16:56.456Z,58.40
2022-09-18T23:19:28.429Z,58.25
2022-09-18T23:21:56.705Z,58.36
2022-09-18T23:24:24.938Z,58.38
2022-09-18T23:26:56.783Z,58.02
2022-09-18T23:29:26.658Z,58.20
2022-09-18T23:31:58.944Z,58.04
2022-09-18T23:34:31.135Z,58.66
2022-09-18T23:36:58.895Z,58.32
2022-09-18T23:39:29.354Z,58.59
2022-09-18T23:41:59.287Z,58.65
2022-09-18T23:44:31.377Z,58.33
2022-09-18T23:46:59.953Z,58.65
2022-09-18T23:49:29.509Z,58.49
2022-09-18T23:51:57.545Z,58.59
2022-09-18T23:54:27.565Z,58.51
2022-09-18T23:56:55.589Z,58.43
2022-09-18T23:59:25.584Z,58.61
